Flight Track Log - Related Links

Times and Time Zones

All times are in EDT time to prevent confusion due to time zone crossing. See the SWA561 flight status page for this flight to view local times or setup timezone preferences in your user account.

Time Position Orientation Groundspeed Altitude Reporting Facility
EDT Latitude Longitude Course Direction KTS km/h feet Rate Location/Type
Fri 20:32:54 37.7194 -122.2425 140° Southeast 149 275 1.000  Level Oakland Center
Fri 20:33:56 37.7422 -122.2997 297° West 194 359 3.000 2.000 Climbing Oakland Center
Fri 20:34:57 37.7250 -122.3622 251° West 217 402 5.100 2.878 Climbing Oakland Center
Fri 20:35:59 37.6458 -122.3828 192° South 264 489 8.900 3.024 Climbing Oakland Center
Fri 20:37:00 37.5403 -122.4122 192° South 312 578 11.300 2.951 Climbing Oakland Center
Fri 20:38:00 37.2746 -121.7438 140° Southeast  Level Estimated
Fri 20:38:01 37.4403 -122.3883 169° South 374 692 14.900  Level Oakland Center
Fri 20:39:03 37.3564 -122.2972 139° Southeast 398 737 18.200 2.976 Climbing Oakland Center
Fri 20:40:04 37.2792 -122.1864 131° Southeast 416 771 21.000 2.634 Climbing Oakland Center
Fri 20:41:06 37.1978 -122.0750 133° Southeast 430 797 23.600 2.829 Climbing Oakland Center
Fri 20:42:07 37.1150 -121.9594 132° Southeast 443 821 26.800 2.656 Climbing Oakland Center
Fri 20:43:08 37.0333 -121.8444 132° Southeast 444 822 29.000 1.073 Climbing Oakland Center
Fri 20:44:10 36.9511 -121.7317 132° Southeast 441 816 29.000  Level Oakland Center
Fri 20:45:11 36.8700 -121.6183 132° Southeast 437 810 29.000  Level Oakland Center
Fri 20:46:13 36.7797 -121.4972 133° Southeast 435 806 29.000  Level Oakland Center
Fri 20:47:14 36.6992 -121.3842 132° Southeast 435 806 29.000  Level Oakland Center
Fri 20:48:15 36.6178 -121.2742 133° Southeast 433 801 29.000  Level Oakland Center
Fri 20:49:17 36.5356 -121.1639 133° Southeast 435 806 29.000  Level Oakland Center
Fri 20:50:18 36.4381 -121.0317 132° Southeast 433 801 29.000  Level Oakland Center
Fri 20:51:20 36.3564 -120.9211 133° Southeast 433 801 29.000  Level Oakland Center
Fri 20:52:21 36.2742 -120.8094 132° Southeast 436 808 29.000  Level Oakland Center
Fri 20:53:22 36.1919 -120.7000 133° Southeast 434 803 29.000  Level Oakland Center
Fri 20:54:24 36.1094 -120.5889 133° Southeast 435 806 29.000  Level Oakland Center
Fri 20:55:25 36.0264 -120.4767 132° Southeast 446 826 29.000  Level Oakland Center
Fri 20:56:26 35.9439 -120.3686 133° Southeast 433 801 29.000  Level Oakland Center
Fri 20:57:27 35.8606 -120.2592 133° Southeast 434 803 29.000  Level Oakland Center
Fri 20:58:29 35.7772 -120.1503 133° Southeast 434 803 29.000  Level Oakland Center
Fri 20:59:30 35.6944 -120.0411 133° Southeast 433 801 29.000  Level Oakland Center
Fri 21:00:31 35.6053 -119.9403 137° Southeast 429 795 29.000  Level Oakland Center
Fri 21:01:32 35.5047 -119.8564 146° Southeast 431 798 29.000  Level Oakland Center
Fri 21:02:34 35.3861 -119.7533 145° Southeast 431 798 29.000  Level Oakland Center
Fri 21:03:14 35.3278 -119.7036 145° Southeast 429 795 29.000  Level Los Angeles Center
Fri 21:04:16 35.2308 -119.6192 145° Southeast 427 790 29.000  Level Los Angeles Center
Fri 21:05:18 35.1331 -119.5361 145° Southeast 427 790 29.000  Level Los Angeles Center
Fri 21:06:20 35.0350 -119.4528 145° Southeast 428 793 29.000  Level Los Angeles Center
Fri 21:07:22 34.9375 -119.3697 145° Southeast 427 790 29.000 -871 Level Los Angeles Center
Fri 21:08:24 34.8231 -119.2736 145° Southeast 417 772 27.200 -2.081 Descending Los Angeles Center
Fri 21:09:26 34.7275 -119.1919 145° Southeast 418 774 24.700 -2.448 Descending Los Angeles Center
Fri 21:10:29 34.6219 -119.1025 145° Southeast 430 797 22.100 -2.304 Descending Los Angeles Center
Fri 21:11:31 34.5233 -119.0211 146° Southeast 406 752 19.900 -2.081 Descending Los Angeles Center
Fri 21:12:33 34.4319 -118.9464 146° Southeast 393 727 17.800 -2.032 Descending Los Angeles Center
Fri 21:13:35 34.3414 -118.8764 147° Southeast 383 710 15.700 -2.032 Descending Los Angeles Center
Fri 21:14:37 34.2411 -118.8386 163° South 377 698 13.600 -2.081 Descending Los Angeles Center
Fri 21:15:39 34.1428 -118.8028 163° South 369 684 11.400 -1.645 Descending Los Angeles Center
Fri 21:16:41 34.0467 -118.7514 156° South 346 641 10.200 -726 Descending Los Angeles Center
Fri 21:17:43 34.0283 -118.6464 102° East 299 554 9.900 -774 Descending Los Angeles Center
Fri 21:18:45 34.0186 -118.5483 97° East 295 546 8.600 -1.210 Descending Los Angeles Center
Fri 21:19:47 34.0106 -118.4553 96° East 281 520 7.400 -1.355 Descending Los Angeles Center
Fri 21:20:49 34.0172 -118.3681 85° East 266 492 5.800 -1.548 Descending Los Angeles Center
Fri 21:21:51 34.0250 -118.2767 84° East 270 501 4.200 -1.210 Descending Los Angeles Center
Fri 21:22:53 34.0081 -118.1994 105° East 266 492 3.300 -823 Descending Los Angeles Center
Fri 21:23:55 33.9683 -118.2283 211° Southwest 228 422 2.500 -677 Descending Los Angeles Center
Fri 21:24:57 33.9628 -118.2992 265° West 193 357 1.900 -677 Descending Los Angeles Center
Fri 21:25:59 33.9583 -118.3436 263° West 159 295 1.100 -677 Descending Los Angeles Center
Fri 21:27:01 33.9553 -118.3836 265° West 133 246 500 -435 Descending Los Angeles Center
Fri 21:28:03 33.9494 -118.4214 259° West 129 238 200 -290 Descending Los Angeles Center

Login

Don't have an account? Register now (free) for customized features, flight alerts, and more!